Adaven, Nevada
Current Conditions -  °F | °C
As of 7:56 PM on Tuesday 27 Jan 2015 (Local Time) from KTPH Reporting Station
Overcast Overcast  
Wind Chill: 33°   Ceiling: 6000
Heat Index: 41°   Visibility: 10mi
Dew Point: 35°   Wind: 15mph
Humidity: 79%   Direction: 320°NW
Pressure: 30.26"   Gusts: 18mph
Location:  38.13°N, 115.6°W
Report Text: KTPH 280356Z AUTO 32013G16KT 10SM SCT046 OVC060 05/02 A3026 RMK AO2 SLP239 T00500017
Loading
Personal Weather Stations






























Interactive Weather Map New forecast layout! Learn more

10-Day Weather Forecast

Advertisements
Track Severe Weather on mobile